West Yellowstone, MT

10:20 AM MDT on October 23, 2014 (GMT -0600)
RAWS HEBGEN LAKE MT US | Change Station
CLOSE
Current Station
Personal Weather Station
Location: West Yellowstone, MT
Elevation: 6700 ft
Nearby Weather Stations

Elev 6700 ft 44.67 °N, 111.10 °W | Updated 41 minutes ago

Overcast
Overcast
34 °F
Feels Like 34 °F
N
1
Wind Variable Wind from SSW
Gusts 4.0 mph

Today
High -- | Low -- °F
--% Chance of Precip.
Yesterday
High -- | Low -- °F
Precip. -- in
7:50 AM 6:26 PM
Waning Crescent, 0% visible
Pressure 30.13 in
Visibility 10.0 miles
Clouds Overcast 9000 ft
Windchill 34 °F
Dew Point 31 °F
Humidity 87%
Rainfall 0.00 in
Snow Depth 0 in , 0 in , 0 in
UV out of 12
Pollen 2.30 out of 12
Air Quality Not available.
Flu Activity No Activity
METAR KWYS 231615Z AUTO 15009KT 10SM OVC090 05/M04 A3013 RMK AO2

More Conditions Fewer Conditions

Pressure 30.13 in
Visibility 10.0 miles
Clouds Overcast 9000 ft
Windchill 34 °F
Dew Point 31 °F
Humidity 87%
Rainfall 0.00 in
Snow Depth 0 in , 0 in , 0 in
UV out of 12
Pollen 2.30 out of 12
Air Quality Not available.
Flu Activity No Activity
METAR KWYS 231615Z AUTO 15009KT 10SM OVC090 05/M04 A3013 RMK AO2

More Conditions Fewer Conditions

10-Day Weather Forecast

Almanac

Astronomy

Oct. 23, 2014 Rise Set
Actual Time 7:50 AM MDT 6:26 PM MDT
Civil Twilight 7:20 AM MDT 6:56 PM MDT
Nautical Twilight 6:46 AM MDT 7:30 PM MDT
Astronomical Twilight 6:12 AM MDT 8:04 PM MDT
Moon 7:33 AM MDT 6:30 PM MDT
Length of Visible Light 11h 35m
Length of Day
10h 36m
Tomorrow will be 2m 53s shorter.
Waning Crescent, 0% of the Moon is Illuminated
Today
Waning Crescent
Oct 23
New
Oct 30
First Quarter
Nov 6
Full
Nov 14
Last Quarter

Today's Extremes

State Highs State Lows

Community

WunderPhotos

Upload Photos

1,764,297 photos uploaded!

Nearby

Snow Depth

Station Depth Elevation
West Yellowstone 0 in 6700 ft
Whiskey Creek 0 in 6800 ft
Madison Plateau 0 in 7750 ft
Carrot Basin 1 in 9000 ft
Tepee Creek 0 in 8000 ft

Earthquake Activity

City Distance Mag. Time & Date
No recent earthquake activity has been reported nearby.
Minimum magnitude displayed is 2.5.

Coastal Water Temperatures

Place Temperature
No Stations Reporting

Nearby Weather Stations